»·PEaware :: N621AF KTOA-KPOC

N621AF :: KTOA-KPOC

FLIGHT INFORMATION

Flight Status: Arrived
Operator: Privately registered:
United States
More flights under this callsign
Pilot: John F. (26568)
Aircraft: CESSNA 172 SKYHAWK
(C172)
More flights by this aircraft type
Origin: KTOA Zamperini
United States
Destination: KPOC Brackett
United States
More flights between these airports :: More routes between these airports
Route: LIMBO V64 SLI V8 POXKU V363 POM
File this flight plan on PilotEdge
Remarks: TEC route SCTP6
Altitude:
(Current/Filed)
5,000ft
Speed:
(Current/Filed)
105kts
Departed: 10-Feb-20 10:39 AM
Arrived: 10-Feb-20 11:23 AM
Distance/Time
Traveled:
33nm/0:43
Distance/Time
To Go:
Arrived

Flight Plot

Page will automatically refresh every two minutes.


Map Options




Map Legend


Flown Route
Filed Route
Departure Airport
Arrival Airport
Navaid (VOR, NDB)
Fix

Horizontal Profiles

Position Reports

Time Latitude Longitude Heading Altitude Ground
Speed
10-Feb-20 10:07 33.803347 -118.344052 39 101ft 0kts
10-Feb-20 10:08 33.803347 -118.344052 39 101ft 0kts
10-Feb-20 10:09 33.803347 -118.344052 39 101ft 0kts
10-Feb-20 10:10 33.803347 -118.344052 39 101ft 0kts
10-Feb-20 10:11 33.803347 -118.344052 39 101ft 0kts
10-Feb-20 10:12 33.803347 -118.344052 39 101ft 0kts
10-Feb-20 10:12 33.803347 -118.344052 39 101ft 0kts
10-Feb-20 10:14 33.803347 -118.344052 39 101ft 0kts
10-Feb-20 10:15 33.803347 -118.344052 39 101ft 0kts
10-Feb-20 10:15 33.803347 -118.344052 39 101ft 0kts
10-Feb-20 10:17 33.803347 -118.344052 39 101ft 0kts
10-Feb-20 10:17 33.803347 -118.344052 39 101ft 0kts
10-Feb-20 10:18 33.803347 -118.344052 39 101ft 0kts
10-Feb-20 10:20 33.803347 -118.344052 39 101ft 0kts
10-Feb-20 10:20 33.803347 -118.344052 39 101ft 0kts
10-Feb-20 10:21 33.803347 -118.344052 39 101ft 0kts
10-Feb-20 10:23 33.803347 -118.344052 39 101ft 0kts
10-Feb-20 10:23 33.803347 -118.344052 39 101ft 0kts
10-Feb-20 10:24 33.803347 -118.344052 39 101ft 0kts
10-Feb-20 10:25 33.803347 -118.344052 39 101ft 0kts
10-Feb-20 10:26 33.803347 -118.344052 39 101ft 0kts
10-Feb-20 10:27 33.803347 -118.344052 39 101ft 0kts
10-Feb-20 10:28 33.803347 -118.344052 39 101ft 0kts
10-Feb-20 10:29 33.803347 -118.344052 39 101ft 0kts
10-Feb-20 10:30 33.803398 -118.343748 122 101ft 1kts
10-Feb-20 10:31 33.802701 -118.341593 129 100ft 12kts
10-Feb-20 10:32 33.799604 -118.336896 126 103ft 21kts
10-Feb-20 10:33 33.798647 -118.333711 39 101ft 12kts
10-Feb-20 10:34 33.799015 -118.333362 38 100ft 0kts
10-Feb-20 10:35 33.799015 -118.333362 38 100ft 0kts
10-Feb-20 10:36 33.799015 -118.333362 38 100ft 0kts
10-Feb-20 10:37 33.799018 -118.333359 37 100ft 0kts
10-Feb-20 10:38 33.804170 -118.339715 307 220ft 76kts
10-Feb-20 10:39 33.815876 -118.361091 303 1254ft 77kts
10-Feb-20 10:40 33.827138 -118.382428 303 2244ft 75kts
10-Feb-20 10:41 33.837156 -118.404072 304 3162ft 74kts
10-Feb-20 10:42 33.847512 -118.426107 308 3989ft 77kts
10-Feb-20 10:43 33.832853 -118.445236 164 4046ft 136kts
10-Feb-20 10:44 33.799519 -118.443145 190 4857ft 118kts
10-Feb-20 10:45 33.764977 -118.444970 185 5012ft 130kts
10-Feb-20 10:46 33.749658 -118.427104 78 4974ft 113kts
10-Feb-20 10:47 33.762154 -118.392703 59 4937ft 111kts
10-Feb-20 10:48 33.766864 -118.355006 70 5012ft 113kts
10-Feb-20 10:49 33.771500 -118.315778 80 5086ft 125kts
10-Feb-20 10:50 33.772286 -118.271519 81 5009ft 133kts
10-Feb-20 10:51 33.774980 -118.232724 103 4988ft 103kts
10-Feb-20 10:52 33.774886 -118.198518 95 4951ft 102kts
10-Feb-20 10:53 33.777054 -118.164243 94 4999ft 101kts
10-Feb-20 10:54 33.779075 -118.129291 98 5036ft 102kts
10-Feb-20 10:55 33.780438 -118.094596 90 5087ft 104kts
10-Feb-20 10:56 33.782968 -118.059071 93 5063ft 108kts
10-Feb-20 10:57 33.794762 -118.023700 61 5052ft 115kts
10-Feb-20 10:58 33.803434 -117.986839 71 5072ft 116kts
10-Feb-20 10:59 33.811031 -117.949652 65 5021ft 113kts
10-Feb-20 11:00 33.820001 -117.913899 66 4989ft 110kts
10-Feb-20 11:01 33.829497 -117.879553 64 4960ft 106kts
10-Feb-20 11:02 33.839140 -117.846684 63 4974ft 102kts
10-Feb-20 11:03 33.847370 -117.815041 70 5061ft 99kts
10-Feb-20 11:04 33.856573 -117.785138 60 5084ft 93kts
10-Feb-20 11:05 33.877159 -117.779833 358 5033ft 85kts
10-Feb-20 11:06 33.900514 -117.784017 358 5066ft 86kts
10-Feb-20 11:07 33.924936 -117.787175 1 5052ft 91kts
10-Feb-20 11:08 33.949153 -117.787459 1 5118ft 91kts
10-Feb-20 11:09 33.969749 -117.780582 79 4705ft 97kts
10-Feb-20 11:10 33.974282 -117.749873 75 4065ft 92kts
10-Feb-20 11:11 33.978530 -117.721500 77 4035ft 79kts
10-Feb-20 11:12 33.994878 -117.709428 359 3693ft 104kts
10-Feb-20 11:13 34.022482 -117.712801 6 3208ft 98kts
10-Feb-20 11:14 34.047919 -117.714433 16 2954ft 85kts
10-Feb-20 11:15 34.073547 -117.718524 351 2597ft 107kts
10-Feb-20 11:16 34.089738 -117.748167 269 1728ft 111kts
10-Feb-20 11:17 34.091376 -117.780977 267 1067ft 81kts
10-Feb-20 11:18 34.084298 -117.802265 175 2005ft 74kts
10-Feb-20 11:19 34.075437 -117.777549 118 2162ft 73kts
10-Feb-20 11:20 34.080256 -117.759389 4 1744ft 77kts
10-Feb-20 11:21 34.091093 -117.777275 268 1007ft 65kts
10-Feb-20 11:22 34.091066 -117.784432 185 986ft 3kts
10-Feb-20 11:23 34.091017 -117.784437 184 986ft 0kts
10-Feb-20 11:24 34.090742 -117.784276 106 987ft 3kts
10-Feb-20 11:25 34.089815 -117.783135 176 991ft 5kts
10-Feb-20 11:26 34.089534 -117.782831 91 992ft 0kts

Navigation Log

Ident Type
Flight plan parsing failed, navigation log unavailable